Bangkok, Thailand
Current Conditions -  °F | °C
As of 11:30 PM on Tuesday 27 Jan 2015 (Local Time) from VTBD Reporting Station
Haze Haze  
Wind Chill: 77°   Ceiling: Unl
Heat Index: 79°   Visibility: 3mi
Dew Point: 68°   Wind: 3mph
Humidity: 74%   Direction: 170°S
Pressure: 29.85"   Gusts: NA
Location:  13.73°N, 100.5°E
Report Text: VTBD 271630Z 17003KT 120V200 5000 BR NSC 25/20 Q1011 NOSIG
Loading
Personal Weather Stations






























Interactive Weather Map New forecast layout! Learn more

10-Day Weather Forecast

Advertisements
Track Severe Weather on mobile